Time;durP1;ratioP1;P1;durP2;ratioP2;P2;SDS_P1;SDS_P2;PMS_P1;PMS_P2;Temp;Humidity;BMP_temperature;BMP_pressure;BME280_temperature;BME280_humidity;BME280_pressure;Samples;Min_cycle;Max_cycle;Signal;HPM_P1;HPM_P2
2022/04/15 00:03:20;;;;;;;0.00;0.00;;;;;;;9.64;73.24;102436.94;10418557;28;20080;-77
2022/04/15 00:08:22;;;;;;;0.00;0.00;;;;;;;9.24;74.07;102445.00;10418288;28;20076;-77
2022/04/15 00:13:25;;;;;;;0.00;0.00;;;;;;;9.73;73.57;102444.25;10418218;28;20050;-77
2022/04/15 00:18:27;;;;;;;0.00;0.00;;;;;;;9.48;74.44;102450.63;10417917;28;20444;-77
2022/04/15 00:23:30;;;;;;;0.00;0.00;;;;;;;9.73;75.01;102445.13;10419197;28;20052;-77
2022/04/15 00:28:58;;;;;;;5.63;2.08;;;;;;;9.68;74.17;102438.84;10417016;28;20045;-77
2022/04/15 00:33:59;;;;;;;0.00;0.00;;;;;;;9.84;73.80;102436.31;10418545;28;20111;-77
2022/04/15 00:39:02;;;;;;;0.00;0.00;;;;;;;10.07;72.07;102433.19;10418306;28;20137;-78
2022/04/15 00:44:04;;;;;;;0.00;0.00;;;;;;;9.74;72.55;102449.47;10417048;28;20077;-77
2022/04/15 00:49:05;;;;;;;0.00;0.00;;;;;;;10.40;70.69;102444.38;10417793;28;20034;-77
2022/04/15 00:54:10;;;;;;;0.00;0.00;;;;;;;10.30;70.43;102445.56;10416538;28;20053;-77
2022/04/15 00:59:13;;;;;;;0.00;0.00;;;;;;;9.69;70.51;102456.06;10399958;28;20077;-76
2022/04/15 01:04:16;;;;;;;0.00;0.00;;;;;;;9.44;69.80;102459.88;10416172;28;20045;-77
2022/04/15 01:09:22;;;;;;;0.00;0.00;;;;;;;8.97;72.93;102458.97;10417022;28;20572;-77
2022/04/15 01:14:25;;;;;;;0.00;0.00;;;;;;;9.47;72.67;102454.91;10416887;28;20045;-77
2022/04/15 01:19:27;;;;;;;0.00;0.00;;;;;;;9.15;70.05;102461.69;10415518;28;20377;-77
2022/04/15 01:24:29;;;;;;;0.00;0.00;;;;;;;9.11;73.09;102459.75;10417413;28;20054;-77
2022/04/15 01:29:38;;;;;;;0.00;0.00;;;;;;;9.50;73.14;102465.34;10415653;28;20455;-77
2022/04/15 01:34:39;;;;;;;0.00;0.00;;;;;;;9.15;72.41;102469.41;10415358;28;20042;-77
2022/04/15 01:39:43;;;;;;;0.00;0.00;;;;;;;9.12;72.85;102473.47;10414137;28;20480;-77
2022/04/15 01:44:45;;;;;;;0.00;0.00;;;;;;;9.29;72.21;102475.34;10414696;28;20504;-77
2022/04/15 01:49:46;;;;;;;0.00;0.00;;;;;;;9.02;72.58;102480.66;10414398;28;20488;-77
2022/04/15 01:54:48;;;;;;;0.00;0.00;;;;;;;8.26;76.66;102488.16;10397874;28;20072;-77
2022/04/15 01:59:49;;;;;;;0.00;0.00;;;;;;;8.40;75.91;102486.41;10414442;28;20079;-77
2022/04/15 02:04:51;;;;;;;0.73;0.60;;;;;;;8.43;76.92;102486.63;10413809;28;20045;-77
2022/04/15 02:09:53;;;;;;;0.10;0.05;;;;;;;8.42;78.30;102495.09;10413637;28;20041;-77
2022/04/15 02:14:55;;;;;;;1.73;0.70;;;;;;;8.40;78.68;102497.59;10415229;28;20385;-77
2022/04/15 02:19:56;;;;;;;0.10;0.10;;;;;;;8.46;78.00;102499.63;10414675;28;20048;-77
2022/04/15 02:24:58;;;;;;;0.60;0.60;;;;;;;8.38;78.00;102505.97;10416478;28;20040;-77
2022/04/15 02:30:00;;;;;;;0.95;0.52;;;;;;;8.60;77.33;102504.75;10454395;28;20056;-78
2022/04/15 02:35:03;;;;;;;0.30;0.30;;;;;;;8.82;77.08;102506.91;10454244;28;20053;-77
2022/04/15 02:40:06;;;;;;;5.03;2.15;;;;;;;8.60;77.04;102517.59;10454461;28;20504;-77
2022/04/15 02:45:09;;;;;;;0.00;0.00;;;;;;;8.83;76.51;102521.53;10437888;28;20049;-77
2022/04/15 02:50:12;;;;;;;0.55;0.40;;;;;;;8.96;76.57;102523.16;10439781;28;20587;-77
2022/04/15 02:55:13;;;;;;;0.38;0.38;;;;;;;8.71;76.31;102519.13;10463500;28;20049;-77
2022/04/15 03:00:15;;;;;;;2.75;0.68;;;;;;;8.71;75.46;102525.13;10445351;28;20094;-77
2022/04/15 03:05:17;;;;;;;0.00;0.00;;;;;;;8.96;74.65;102531.72;10463267;28;20094;-77
2022/04/15 03:10:18;;;;;;;0.10;0.10;;;;;;;8.96;74.02;102531.72;10461713;28;20099;-76
2022/04/15 03:15:20;;;;;;;0.13;0.13;;;;;;;8.92;74.08;102523.75;10462852;28;20049;-77
2022/04/15 03:20:21;;;;;;;0.00;0.00;;;;;;;8.83;74.02;102524.09;10461988;28;20048;-76
2022/04/15 03:25:23;;;;;;;0.00;0.00;;;;;;;8.75;73.65;102526.19;10461730;28;20076;-76
2022/04/15 03:30:24;;;;;;;0.00;0.00;;;;;;;9.43;71.08;102536.97;10460975;28;20132;-77
2022/04/15 03:35:26;;;;;;;0.00;0.00;;;;;;;9.50;69.74;102539.97;10460937;28;20083;-76
2022/04/15 03:40:28;;;;;;;0.00;0.00;;;;;;;9.78;67.82;102533.81;10460654;28;20488;-76
2022/04/15 03:45:30;;;;;;;0.00;0.00;;;;;;;9.43;67.95;102534.41;10461778;28;20484;-76
2022/04/15 03:50:31;;;;;;;0.00;0.00;;;;;;;9.57;67.47;102537.75;10460216;28;20049;-78
2022/04/15 03:55:33;;;;;;;0.00;0.00;;;;;;;8.99;68.09;102542.22;10460067;28;20424;-78
2022/04/15 04:00:34;;;;;;;0.00;0.00;;;;;;;8.42;69.35;102556.75;10459490;28;20103;-78
2022/04/15 04:05:36;;;;;;;0.00;0.00;;;;;;;8.51;69.37;102552.22;10460556;28;20112;-78
2022/04/15 04:10:37;;;;;;;0.00;0.00;;;;;;;8.52;66.80;102547.94;10459759;28;20044;-78
2022/04/15 04:15:39;;;;;;;0.00;0.00;;;;;;;8.33;68.66;102557.09;10459917;28;20041;-78
2022/04/15 04:20:41;;;;;;;0.00;0.00;;;;;;;8.16;69.25;102562.84;10460351;28;20087;-77
2022/04/15 04:25:43;;;;;;;0.00;0.00;;;;;;;8.39;67.86;102562.59;10459321;28;20077;-77
2022/04/15 04:30:46;;;;;;;0.00;0.00;;;;;;;8.77;66.04;102558.03;10442229;28;20095;-77
2022/04/15 04:35:48;;;;;;;0.00;0.00;;;;;;;8.33;68.87;102567.34;10458552;28;20131;-77
2022/04/15 04:40:50;;;;;;;0.00;0.00;;;;;;;8.70;68.08;102561.94;10459606;28;20080;-77
2022/04/15 04:45:52;;;;;;;0.00;0.00;;;;;;;8.50;69.34;102576.13;10459387;28;20132;-77
2022/04/15 04:50:56;;;;;;;0.00;0.00;;;;;;;8.53;68.41;102580.56;10441716;28;20044;-77
2022/04/15 04:55:58;;;;;;;0.00;0.00;;;;;;;8.65;68.57;102590.69;10457598;28;20072;-77
2022/04/15 05:00:59;;;;;;;0.00;0.00;;;;;;;8.43;68.72;102604.75;10458701;28;20519;-77
2022/04/15 05:06:02;;;;;;;0.00;0.00;;;;;;;8.72;68.25;102605.69;10419725;28;20505;-77
2022/04/15 05:11:03;;;;;;;0.00;0.00;;;;;;;8.36;67.61;102610.31;10415591;28;20033;-78
2022/04/15 05:16:05;;;;;;;0.00;0.00;;;;;;;8.65;66.25;102616.41;10415760;28;20077;-77
2022/04/15 05:21:07;;;;;;;0.00;0.00;;;;;;;8.67;66.43;102631.09;10415445;28;20084;-77
2022/04/15 05:26:09;;;;;;;0.00;0.00;;;;;;;8.95;65.61;102639.63;10415378;28;20104;-77
2022/04/15 05:31:10;;;;;;;0.00;0.00;;;;;;;8.83;66.95;102639.75;10415318;28;20048;-77
2022/04/15 05:36:12;;;;;;;0.00;0.00;;;;;;;8.58;68.99;102645.94;10432098;28;20049;-77
2022/04/15 05:41:14;;;;;;;0.00;0.00;;;;;;;8.71;69.60;102652.75;10439390;28;20045;-77
2022/04/15 05:46:42;;;;;;;0.00;0.00;;;;;;;9.34;68.67;102653.97;10456358;28;20060;-77
2022/04/15 05:52:34;;;;;;;0.00;0.00;;;;;;;9.49;68.88;102659.09;10428456;28;20045;-77
2022/04/15 05:57:35;;;;;;;0.00;0.00;;;;;;;9.02;71.81;102667.47;10419032;28;20040;-77
2022/04/15 06:02:37;;;;;;;0.00;0.00;;;;;;;9.40;70.97;102663.72;10438193;28;20124;-77
2022/04/15 06:07:38;;;;;;;0.00;0.00;;;;;;;9.28;71.64;102673.28;10421679;28;20107;-77
2022/04/15 06:13:04;;;;;;;0.40;0.40;;;;;;;8.52;73.64;102690.16;10419578;28;20037;-78
2022/04/15 06:18:06;;;;;;;0.00;0.00;;;;;;;8.87;74.10;102688.88;10455050;28;20041;-77
2022/04/15 06:30:03;;;;;;;;;;;;;;;8.81;73.88;102698.78;10420804;28;20037;-77
2022/04/15 06:35:06;;;;;;;0.00;0.00;;;;;;;9.09;73.61;102708.19;10449282;28;19921;-76
2022/04/15 06:40:08;;;;;;;17.77;0.90;;;;;;;9.10;72.96;102712.53;10462674;28;20389;-77
2022/04/15 06:45:11;;;;;;;0.00;0.00;;;;;;;9.48;72.32;102711.38;10463098;28;20095;-76
2022/04/15 06:50:13;;;;;;;0.47;0.32;;;;;;;9.37;71.46;102720.13;10463908;28;20053;-79
2022/04/15 06:55:14;;;;;;;2.38;1.00;;;;;;;9.23;71.83;102731.28;10446784;28;20077;-77
2022/04/15 07:00:16;;;;;;;2.38;1.60;;;;;;;9.15;71.69;102734.25;10422026;28;20397;-77
2022/04/15 07:05:19;;;;;;;3.10;2.95;;;;;;;9.66;70.07;102728.69;10422116;28;20076;-77
2022/04/15 07:10:21;;;;;;;0.10;0.10;;;;;;;9.75;71.53;102733.50;10422470;28;20548;-76
2022/04/15 07:15:25;;;;;;;1.17;0.10;;;;;;;9.79;70.85;102738.03;10420077;28;20575;-76
2022/04/15 07:20:26;;;;;;;0.20;0.13;;;;;;;9.51;70.75;102739.84;10403892;28;20394;-76
2022/04/15 07:25:28;;;;;;;0.00;0.00;;;;;;;10.14;69.51;102742.66;10403653;28;20448;-77
2022/04/15 07:30:29;;;;;;;0.43;0.43;;;;;;;9.79;70.15;102750.91;10444758;28;20103;-77
2022/04/15 07:35:32;;;;;;;0.00;0.00;;;;;;;9.68;70.01;102753.72;10460247;28;20045;-76
2022/04/15 07:40:34;;;;;;;0.00;0.00;;;;;;;10.40;68.87;102751.00;10461904;28;20388;-77
2022/04/15 07:45:35;;;;;;;0.00;0.00;;;;;;;10.18;68.22;102750.53;10461610;28;20106;-76
2022/04/15 07:50:38;;;;;;;0.20;0.20;;;;;;;10.12;69.33;102751.09;10460092;28;20045;-76
2022/04/15 07:55:40;;;;;;;0.00;0.00;;;;;;;10.34;67.65;102758.34;10443562;28;20106;-76
2022/04/15 08:00:42;;;;;;;0.00;0.00;;;;;;;10.52;67.37;102762.81;10460208;28;20041;-77
2022/04/15 08:05:44;;;;;;;0.28;0.28;;;;;;;10.23;67.92;102759.44;10461266;28;20041;-76
2022/04/15 08:10:48;;;;;;;0.20;0.13;;;;;;;10.06;68.66;102759.34;10460220;28;20471;-76
2022/04/15 08:15:53;;;;;;;0.70;0.55;;;;;;;10.28;68.37;102760.56;10421397;28;20136;-76
2022/04/15 08:20:56;;;;;;;0.38;0.32;;;;;;;10.68;67.36;102765.44;10419220;28;20073;-76
2022/04/15 08:25:57;;;;;;;0.00;0.00;;;;;;;10.89;66.29;102764.84;10417619;28;20444;-76
2022/04/15 08:30:59;;;;;;;0.28;0.28;;;;;;;10.54;68.66;102771.50;10400948;28;20038;-76
2022/04/15 08:36:26;;;;;;;0.00;0.00;;;;;;;11.01;64.52;102777.50;10417552;28;20511;-76
2022/04/15 08:41:34;;;;;;;0.55;0.55;;;;;;;10.56;65.25;102785.34;10417180;28;20053;-76
2022/04/15 08:46:36;;;;;;;0.00;0.00;;;;;;;10.70;66.31;102779.28;10417021;28;20084;-76
2022/04/15 08:51:39;;;;;;;0.00;0.00;;;;;;;11.06;64.46;102784.66;10417453;28;20042;-77
2022/04/15 08:56:42;;;;;;;0.80;0.30;;;;;;;10.28;65.54;102796.66;10416493;28;20512;-76
2022/04/15 09:01:43;;;;;;;0.00;0.00;;;;;;;11.02;64.50;102805.97;10416379;28;20041;-76
2022/04/15 09:06:45;;;;;;;0.00;0.00;;;;;;;10.70;65.78;102804.19;10417358;28;20128;-77
2022/04/15 09:11:48;;;;;;;0.20;0.20;;;;;;;10.31;66.12;102800.28;10415785;28;20044;-75
2022/04/15 09:16:50;;;;;;;0.30;0.30;;;;;;;10.78;67.03;102802.94;10415617;28;20079;-76
2022/04/15 09:21:54;;;;;;;0.15;0.15;;;;;;;10.72;65.33;102800.00;10399147;28;20080;-76
2022/04/15 09:26:55;;;;;;;0.22;0.08;;;;;;;10.91;65.65;102805.38;10431942;28;20046;-76
2022/04/15 09:31:57;;;;;;;0.00;0.00;;;;;;;11.70;62.65;102814.72;10445224;28;20400;-76
2022/04/15 09:37:05;;;;;;;0.25;0.25;;;;;;;11.25;63.25;102819.22;10457446;28;20186;-76
2022/04/15 09:42:08;;;;;;;1.45;1.33;;;;;;;10.62;64.72;102824.34;10456707;28;20045;-76
2022/04/15 09:47:10;;;;;;;0.35;0.35;;;;;;;11.02;64.93;102818.84;10457176;28;20048;-76
2022/04/15 09:52:12;;;;;;;0.00;0.00;;;;;;;11.33;62.91;102819.63;10455688;28;20095;-77
2022/04/15 09:57:39;;;;;;;0.20;0.20;;;;;;;11.47;63.94;102822.94;10455637;28;20512;-76
2022/04/15 10:02:42;;;;;;;0.00;0.00;;;;;;;11.63;63.53;102835.88;10438412;28;20467;-76
2022/04/15 10:07:44;;;;;;;1.65;0.80;;;;;;;10.71;65.05;102839.47;10438974;28;20126;-76
2022/04/15 10:12:46;;;;;;;0.00;0.00;;;;;;;11.31;63.52;102837.59;10449141;28;20041;-76
2022/04/15 10:17:48;;;;;;;0.00;0.00;;;;;;;11.44;64.05;102844.31;10455573;28;20525;-78
2022/04/15 10:22:50;;;;;;;0.00;0.00;;;;;;;11.66;62.68;102846.31;10456272;28;20439;-76
2022/04/15 10:27:52;;;;;;;0.60;0.52;;;;;;;11.01;64.45;102844.56;10455107;28;20060;-77
2022/04/15 10:32:57;;;;;;;0.00;0.00;;;;;;;11.87;62.06;102843.13;10456117;28;20072;-77
2022/04/15 10:38:03;;;;;;;0.00;0.00;;;;;;;11.48;61.60;102845.38;10457329;28;20139;-78
2022/04/15 10:43:06;;;;;;;0.00;0.00;;;;;;;11.86;62.09;102843.91;10454843;28;20069;-77
2022/04/15 10:48:08;;;;;;;0.10;0.10;;;;;;;11.83;61.38;102838.59;10454597;28;20519;-77
2022/04/15 10:53:19;;;;;;;0.00;0.00;;;;;;;11.87;61.50;102836.25;10455616;28;20102;-77
2022/04/15 10:58:21;;;;;;;0.00;0.00;;;;;;;12.19;59.71;102838.72;10437998;28;20149;-77
2022/04/15 11:03:31;;;;;;;0.00;0.00;;;;;;;12.54;58.83;102831.84;10437946;28;20399;-77
2022/04/15 11:08:46;;;;;;;;;;;;;;;11.99;60.50;102846.34;10454727;28;20048;-77
2022/04/15 11:13:47;;;;;;;0.40;0.10;;;;;;;12.24;58.58;102838.94;10460959;28;19921;-77
2022/04/15 11:18:53;;;;;;;0.45;0.45;;;;;;;11.92;61.28;102854.56;10461613;28;20049;-77
2022/04/15 11:24:03;;;;;;;0.00;0.00;;;;;;;11.98;60.24;102847.16;10462777;28;20043;-77
2022/04/15 11:29:07;;;;;;;0.00;0.00;;;;;;;13.14;57.58;102844.16;10462923;28;20132;-77
2022/04/15 11:34:10;;;;;;;0.00;0.00;;;;;;;12.54;59.35;102842.19;10461142;28;20057;-77
2022/04/15 11:39:17;;;;;;;0.63;0.63;;;;;;;12.34;60.18;102849.81;10460807;28;20468;-77
2022/04/15 11:44:20;;;;;;;0.00;0.00;;;;;;;13.63;56.64;102843.81;10460886;28;20049;-77
2022/04/15 11:49:25;;;;;;;0.00;0.00;;;;;;;13.59;56.21;102844.47;10461647;28;20041;-77
2022/04/15 11:54:32;;;;;;;0.03;0.03;;;;;;;12.64;57.52;102844.38;10460227;28;20080;-77
2022/04/15 11:59:38;;;;;;;0.10;0.10;;;;;;;13.20;58.53;102846.09;10458439;28;20064;-77
2022/04/15 12:04:52;;;;;;;0.00;0.00;;;;;;;13.22;56.72;102842.78;10418670;28;20056;-77
2022/04/15 12:09:54;;;;;;;0.00;0.00;;;;;;;12.69;59.78;102827.41;10419101;28;20136;-77
2022/04/15 12:14:56;;;;;;;0.82;0.73;;;;;;;13.51;55.50;102834.59;10418122;28;20045;-77
2022/04/15 12:19:57;;;;;;;0.00;0.00;;;;;;;13.94;56.44;102827.00;10419183;28;20065;-77
2022/04/15 12:25:15;;;;;;;0.00;0.00;;;;;;;13.21;56.78;102837.53;10417077;28;20049;-77
2022/04/15 12:30:38;;;;;;;0.00;0.00;;;;;;;13.56;55.12;102841.75;10401116;28;20080;-77
2022/04/15 12:36:02;;;;;;;0.30;0.22;;;;;;;13.46;55.45;102844.75;10418341;28;20077;-77
2022/04/15 12:41:12;;;;;;;0.00;0.00;;;;;;;14.44;53.55;102836.84;10413381;28;20033;-78
2022/04/15 12:46:17;;;;;;;0.65;0.65;;;;;;;12.79;56.84;102845.94;10417631;28;20120;-77
2022/04/15 12:51:18;;;;;;;0.00;0.00;;;;;;;12.83;57.46;102845.28;10404621;28;20042;-77
2022/04/15 12:56:23;;;;;;;0.00;0.00;;;;;;;13.43;57.25;102844.63;10400585;28;20508;-77
2022/04/15 13:01:25;;;;;;;0.00;0.00;;;;;;;13.14;56.71;102841.56;10399806;28;20071;-77
2022/04/15 13:06:27;;;;;;;0.00;0.00;;;;;;;12.61;58.36;102844.25;10417570;28;20052;-77
2022/04/15 13:11:28;;;;;;;0.03;0.03;;;;;;;12.81;57.66;102854.66;10417319;28;20045;-77
2022/04/15 13:16:30;;;;;;;0.25;0.15;;;;;;;12.72;57.56;102847.34;10416040;28;20132;-77
2022/04/15 13:21:32;;;;;;;0.00;0.00;;;;;;;13.10;58.37;102839.63;10416741;28;20050;-76
2022/04/15 13:26:33;;;;;;;0.55;0.52;;;;;;;12.25;60.62;102849.34;10416552;28;20124;-77
2022/04/15 13:31:36;;;;;;;0.20;0.13;;;;;;;12.12;59.99;102850.47;10441210;28;20131;-78
2022/04/15 13:36:38;;;;;;;0.30;0.28;;;;;;;12.18;59.77;102858.50;10455137;28;20060;-76
2022/04/15 13:41:39;;;;;;;0.82;0.50;;;;;;;12.45;59.02;102849.47;10427644;28;20493;-77
2022/04/15 13:46:41;;;;;;;0.15;0.15;;;;;;;13.13;60.09;102855.31;10414748;28;20504;-77
2022/04/15 13:51:52;;;;;;;0.00;0.00;;;;;;;12.43;58.79;102862.34;10414635;28;20099;-77
2022/04/15 13:57:21;;;;;;;0.55;0.20;;;;;;;12.30;58.25;102860.84;10415734;28;20088;-76
2022/04/15 14:02:24;;;;;;;0.00;0.00;;;;;;;12.68;59.55;102861.84;10430657;28;20064;-77
2022/04/15 14:07:26;;;;;;;0.40;0.22;;;;;;;12.17;58.80;102863.63;10414187;28;20053;-76
2022/04/15 14:12:28;;;;;;;0.38;0.38;;;;;;;12.82;57.95;102854.72;10406002;28;20054;-74
2022/04/15 14:17:43;;;;;;;0.45;0.10;;;;;;;13.07;57.21;102865.38;10405361;28;20072;-77
2022/04/15 14:22:45;;;;;;;0.00;0.00;;;;;;;12.32;59.06;102856.59;10414628;28;20041;-77
2022/04/15 14:27:47;;;;;;;0.95;0.45;;;;;;;12.13;59.72;102857.41;10382846;28;20042;-77
2022/04/15 14:32:49;;;;;;;0.00;0.00;;;;;;;13.04;56.71;102849.69;10416629;28;20043;-78
2022/04/15 14:37:51;;;;;;;0.00;0.00;;;;;;;12.72;57.57;102856.78;10420591;28;20536;-77
2022/04/15 14:42:56;;;;;;;0.00;0.00;;;;;;;12.42;58.48;102854.47;10385676;28;20124;-77
2022/04/15 14:47:59;;;;;;;0.40;0.40;;;;;;;12.06;59.38;102870.81;10426198;28;20129;-77
2022/04/15 14:53:01;;;;;;;0.60;0.35;;;;;;;12.28;58.81;102865.03;10420994;28;20164;-77
2022/04/15 14:58:05;;;;;;;0.10;0.10;;;;;;;12.33;59.22;102857.50;10421245;28;20045;-76
2022/04/15 15:03:10;;;;;;;0.15;0.15;;;;;;;12.12;60.77;102862.47;10394721;28;20046;-76
2022/04/15 15:08:13;;;;;;;0.00;0.00;;;;;;;12.47;59.59;102855.63;10403773;28;20078;-76
2022/04/15 15:13:15;;;;;;;0.52;0.20;;;;;;;12.40;59.24;102856.13;10425244;28;20076;-77
2022/04/15 15:18:16;;;;;;;0.10;0.10;;;;;;;12.76;58.36;102858.75;10421246;28;20516;-77
2022/04/15 15:23:18;;;;;;;0.00;0.00;;;;;;;12.52;57.68;102862.78;10421445;28;20038;-77
2022/04/15 15:34:02;;;;;;;0.00;0.00;;;;;;;13.49;55.75;102870.78;10435615;28;20072;-76
2022/04/15 15:39:03;;;;;;;0.00;0.00;;;;;;;13.57;55.08;102864.25;10438319;28;20045;-77
2022/04/15 15:44:05;;;;;;;0.00;0.00;;;;;;;12.98;56.01;102873.56;10461657;28;20041;-77
2022/04/15 15:49:07;;;;;;;0.13;0.13;;;;;;;12.52;58.64;102870.53;10459532;28;20037;-77
2022/04/15 15:54:09;;;;;;;0.00;0.00;;;;;;;12.69;57.99;102873.97;10433445;28;20037;-77
2022/04/15 15:59:10;;;;;;;0.08;0.05;;;;;;;12.66;58.58;102873.81;10419164;28;20056;-76
2022/04/15 16:04:12;;;;;;;0.10;0.10;;;;;;;12.76;57.29;102869.97;10420477;28;20576;-76
2022/04/15 16:09:14;;;;;;;0.00;0.00;;;;;;;12.62;57.79;102866.69;10418427;28;20446;-76
2022/04/15 16:14:18;;;;;;;0.00;0.00;;;;;;;12.44;58.17;102881.31;10419258;28;20514;-76
2022/04/15 16:19:20;;;;;;;0.00;0.00;;;;;;;12.23;59.71;102887.19;10401607;28;20432;-76
2022/04/15 16:24:22;;;;;;;0.00;0.00;;;;;;;12.53;57.79;102872.31;10423698;28;20056;-76
2022/04/15 16:29:24;;;;;;;0.00;0.00;;;;;;;12.97;55.74;102875.28;10459342;28;20092;-76
2022/04/15 16:34:25;;;;;;;0.00;0.00;;;;;;;13.42;55.91;102879.09;10442500;28;20563;-76
2022/04/15 16:39:27;;;;;;;0.00;0.00;;;;;;;13.12;57.00;102876.81;10460563;28;20076;-76
2022/04/15 16:44:29;;;;;;;0.00;0.00;;;;;;;12.73;56.96;102879.28;10459866;28;20072;-75
2022/04/15 16:49:30;;;;;;;0.00;0.00;;;;;;;12.73;57.65;102869.81;10459228;28;20083;-76
2022/04/15 16:59:52;;;;;;;0.60;0.60;;;;;;;12.58;57.97;102875.13;10417928;28;20042;-76
2022/04/15 17:04:55;;;;;;;0.00;0.00;;;;;;;12.89;57.96;102875.72;10426801;28;20075;-76
2022/04/15 17:09:57;;;;;;;0.30;0.28;;;;;;;12.15;57.43;102889.34;10422185;28;20048;-76
2022/04/15 17:14:59;;;;;;;0.20;0.20;;;;;;;12.48;57.05;102888.41;10415445;28;20049;-75
2022/04/15 17:20:00;;;;;;;0.03;0.03;;;;;;;12.39;57.51;102891.41;10415328;28;20465;-77
2022/04/15 17:25:02;;;;;;;0.00;0.00;;;;;;;12.72;55.45;102882.66;10415637;28;20124;-76
2022/04/15 17:30:04;;;;;;;0.00;0.00;;;;;;;12.78;56.42;102882.94;10416532;28;20213;-77
2022/04/15 17:35:09;;;;;;;0.00;0.00;;;;;;;12.37;57.47;102878.41;10416876;28;20079;-76
2022/04/15 17:40:11;;;;;;;0.00;0.00;;;;;;;12.83;55.95;102876.31;10416206;28;20041;-77
2022/04/15 17:45:12;;;;;;;0.00;0.00;;;;;;;12.54;57.77;102874.09;10414945;28;20080;-76
2022/04/15 17:50:14;;;;;;;0.15;0.15;;;;;;;12.29;58.25;102887.47;10415552;28;20124;-77
2022/04/15 17:55:15;;;;;;;0.05;0.05;;;;;;;12.47;57.28;102887.53;10426611;28;20167;-77
2022/04/15 18:00:17;;;;;;;0.00;0.00;;;;;;;12.79;58.02;102890.81;10456830;28;20128;-78
2022/04/15 18:05:19;;;;;;;0.00;0.00;;;;;;;12.94;57.02;102898.41;10455622;28;20068;-76
2022/04/15 18:10:21;;;;;;;0.00;0.00;;;;;;;12.81;59.17;102901.22;10456556;28;20480;-78
2022/04/15 18:15:23;;;;;;;0.00;0.00;;;;;;;12.74;58.57;102901.75;10438555;28;20129;-77
2022/04/15 18:20:24;;;;;;;0.00;0.00;;;;;;;12.86;57.59;102915.25;10414701;28;20096;-76
2022/04/15 18:25:26;;;;;;;0.00;0.00;;;;;;;12.90;58.10;102919.78;10423642;28;20069;-76
2022/04/15 18:30:28;;;;;;;0.03;0.03;;;;;;;12.58;58.10;102929.41;10423464;28;20041;-77
2022/04/15 18:35:29;;;;;;;0.00;0.00;;;;;;;12.47;58.15;102928.00;10422157;28;20053;-76
2022/04/15 18:40:31;;;;;;;0.00;0.00;;;;;;;12.35;57.94;102939.47;10421700;28;20049;-77
2022/04/15 18:45:32;;;;;;;0.00;0.00;;;;;;;12.31;57.49;102937.56;10422885;28;20133;-77
2022/04/15 18:55:55;;;;;;;0.00;0.00;;;;;;;12.74;57.09;102956.91;10422378;28;20561;-77
2022/04/15 19:00:59;;;;;;;0.10;0.10;;;;;;;12.14;58.15;102954.75;10460345;28;20045;-77
2022/04/15 19:06:00;;;;;;;0.10;0.10;;;;;;;11.91;58.14;102961.28;10426488;28;20470;-77
2022/04/15 19:11:02;;;;;;;0.20;0.20;;;;;;;12.29;56.83;102966.69;10435565;28;20045;-77
2022/04/15 19:16:04;;;;;;;0.10;0.10;;;;;;;11.97;57.28;102964.22;10421003;28;20073;-76
2022/04/15 19:21:06;;;;;;;0.00;0.00;;;;;;;12.26;57.39;102975.19;10419926;28;20053;-77
2022/04/15 19:26:08;;;;;;;0.00;0.00;;;;;;;12.81;56.28;102963.31;10421425;28;20146;-77
2022/04/15 19:31:10;;;;;;;0.00;0.00;;;;;;;12.10;58.22;102977.78;10421141;28;20515;-77
2022/04/15 19:36:12;;;;;;;0.00;0.00;;;;;;;12.20;58.42;102975.78;10419696;28;20068;-76
2022/04/15 19:41:14;;;;;;;0.55;0.55;;;;;;;12.14;58.17;102972.84;10420591;28;20508;-76
2022/04/15 19:46:16;;;;;;;0.30;0.22;;;;;;;11.87;58.65;102974.84;10419248;28;20477;-77
2022/04/15 19:51:18;;;;;;;0.00;0.00;;;;;;;11.84;58.72;102977.25;10418855;28;20049;-77
2022/04/15 20:02:29;;;;;;;0.60;0.60;;;;;;;11.59;59.52;102996.56;10419878;28;20033;-76
2022/04/15 20:07:31;;;;;;;0.88;0.80;;;;;;;11.62;59.17;103003.56;10419348;28;20076;-76
2022/04/15 20:12:33;;;;;;;0.05;0.05;;;;;;;11.67;59.00;103005.63;10401056;28;20050;-76
2022/04/15 20:17:35;;;;;;;0.00;0.00;;;;;;;11.61;59.25;103007.84;10418140;28;20448;-78
2022/04/15 20:22:37;;;;;;;0.00;0.00;;;;;;;11.65;59.26;103009.81;10417915;28;20401;-76
2022/04/15 20:27:40;;;;;;;0.00;0.00;;;;;;;11.78;58.47;103015.66;10417832;28;20069;-76
2022/04/15 20:32:43;;;;;;;0.00;0.00;;;;;;;11.64;60.04;103013.22;10417447;28;20435;-76
2022/04/15 20:37:47;;;;;;;0.00;0.00;;;;;;;11.60;59.62;103011.25;10418567;28;20068;-76
2022/04/15 20:42:50;;;;;;;0.00;0.00;;;;;;;11.85;59.04;103012.59;10418740;28;20045;-76
2022/04/15 20:47:52;;;;;;;0.00;0.00;;;;;;;11.38;59.91;103015.22;10401796;28;20483;-76
2022/04/15 20:52:53;;;;;;;0.00;0.00;;;;;;;11.51;59.65;103010.72;10457839;28;20053;-76
2022/04/15 20:57:55;;;;;;;0.22;0.22;;;;;;;11.18;60.99;103010.59;10392413;28;20128;-76
2022/04/15 21:02:56;;;;;;;0.00;0.00;;;;;;;11.33;60.84;103014.06;10440840;28;20053;-75
2022/04/15 21:07:58;;;;;;;0.80;0.38;;;;;;;11.25;60.98;103005.88;10416189;28;20053;-75
2022/04/15 21:13:00;;;;;;;0.00;0.00;;;;;;;11.23;61.28;103009.16;10443290;28;20145;-75
2022/04/15 21:18:02;;;;;;;0.00;0.00;;;;;;;11.29;60.24;103008.63;10424496;28;20050;-75
2022/04/15 21:23:04;;;;;;;0.05;0.05;;;;;;;11.15;60.98;103010.41;10449252;28;20491;-76
2022/04/15 21:28:05;;;;;;;0.00;0.00;;;;;;;11.09;60.94;103016.13;10416782;28;20072;-76
2022/04/15 21:33:08;;;;;;;0.00;0.00;;;;;;;11.22;61.13;103023.78;10432048;28;20437;-75
2022/04/15 21:38:13;;;;;;;0.77;0.63;;;;;;;10.92;62.24;103020.28;10448687;28;20041;-76
2022/04/15 21:43:15;;;;;;;0.00;0.00;;;;;;;10.74;62.73;103018.44;10456514;28;20047;-76
2022/04/15 21:48:16;;;;;;;0.00;0.00;;;;;;;11.00;61.39;103019.06;10458110;28;20072;-77
2022/04/15 21:53:20;;;;;;;0.00;0.00;;;;;;;10.77;62.06;103009.97;10455830;28;20064;-76
2022/04/15 21:58:21;;;;;;;0.30;0.17;;;;;;;10.60;62.21;103019.31;10456200;28;20496;-76
2022/04/15 22:03:24;;;;;;;0.05;0.05;;;;;;;10.42;62.92;103013.94;10456570;28;20144;-76
2022/04/15 22:08:26;;;;;;;0.00;0.00;;;;;;;10.26;63.27;103012.06;10455495;28;20500;-76
2022/04/15 22:13:27;;;;;;;0.00;0.00;;;;;;;10.08;63.74;103017.88;10456494;28;20135;-76
2022/04/15 22:18:31;;;;;;;0.00;0.00;;;;;;;9.96;63.77;103023.16;10455228;28;20049;-76
2022/04/15 22:23:33;;;;;;;0.00;0.00;;;;;;;9.85;64.26;103029.31;10456122;28;20071;-77
2022/04/15 22:28:35;;;;;;;0.00;0.00;;;;;;;9.68;64.26;103023.09;10456019;28;20083;-76
2022/04/15 22:33:36;;;;;;;0.00;0.00;;;;;;;9.58;64.47;103028.44;10456008;28;20037;-76
2022/04/15 22:38:38;;;;;;;0.00;0.00;;;;;;;9.51;65.16;103038.34;10455968;28;20056;-76
2022/04/15 22:43:39;;;;;;;0.00;0.00;;;;;;;9.50;65.92;103031.41;10455826;28;20073;-77
2022/04/15 22:48:41;;;;;;;0.05;0.05;;;;;;;9.45;65.94;103032.81;10455760;28;20076;-76
2022/04/15 22:53:42;;;;;;;0.00;0.00;;;;;;;9.53;65.80;103041.91;10456020;28;20097;-76
2022/04/15 22:58:47;;;;;;;0.00;0.00;;;;;;;9.49;66.49;103037.34;10454854;28;20457;-76
2022/04/15 23:03:49;;;;;;;0.00;0.00;;;;;;;9.42;65.85;103045.44;10455882;28;20045;-76
2022/04/15 23:08:51;;;;;;;0.00;0.00;;;;;;;9.27;66.11;103047.06;10475632;28;20129;-76
2022/04/15 23:13:52;;;;;;;0.00;0.00;;;;;;;9.17;66.19;103056.72;10462098;28;20045;-76
2022/04/15 23:18:54;;;;;;;0.00;0.00;;;;;;;8.94;67.52;103067.16;10461870;28;20460;-77
2022/04/15 23:23:57;;;;;;;0.00;0.00;;;;;;;8.92;66.95;103058.44;10463212;28;20378;-77
2022/04/15 23:28:59;;;;;;;0.00;0.00;;;;;;;8.95;66.78;103058.66;10462677;28;20041;-77
2022/04/15 23:34:02;;;;;;;0.00;0.00;;;;;;;8.77;67.34;103059.19;10461299;28;20044;-77
2022/04/15 23:39:04;;;;;;;0.00;0.00;;;;;;;8.62;67.31;103058.13;10462289;28;20065;-77
2022/04/15 23:44:05;;;;;;;0.00;0.00;;;;;;;8.79;67.34;103062.75;10461986;28;20037;-77
2022/04/15 23:49:09;;;;;;;0.00;0.00;;;;;;;9.19;65.30;103060.28;10462062;28;20107;-78
2022/04/15 23:54:16;;;;;;;0.00;0.00;;;;;;;8.84;66.23;103063.94;10458458;28;20107;-79